Time;durP1;ratioP1;P1;durP2;ratioP2;P2;SDS_P1;SDS_P2;PMS_P1;PMS_P2;Temp;Humidity;BMP_temperature;BMP_pressure;BME280_temperature;BME280_humidity;BME280_pressure;Samples;Min_cycle;Max_cycle;Signal;HPM_P1;HPM_P2
2021/03/01 00:00:10;;;;;;;20.63;12.95;;;;;;;7.69;66.39;103664.50;5074124;28;20028;-85
2021/03/01 00:02:36;;;;;;;18.83;13.52;;;;;;;7.64;66.14;103660.81;5068091;28;20032;-85
2021/03/01 00:05:05;;;;;;;19.90;13.40;;;;;;;7.60;66.04;103664.13;5065062;28;20050;-85
2021/03/01 00:07:31;;;;;;;21.02;13.75;;;;;;;7.56;66.06;103662.25;5071300;28;20024;-85
2021/03/01 00:09:58;;;;;;;18.92;13.55;;;;;;;7.51;66.07;103661.16;5068910;28;20036;-86
2021/03/01 00:12:26;;;;;;;19.15;13.57;;;;;;;7.48;66.03;103661.94;5064480;28;20108;-85
2021/03/01 00:14:52;;;;;;;17.45;12.68;;;;;;;7.45;66.51;103660.09;5065899;28;20025;-85
2021/03/01 00:17:19;;;;;;;21.17;14.82;;;;;;;7.41;66.21;103663.47;5070381;28;20572;-85
2021/03/01 00:19:45;;;;;;;20.10;13.75;;;;;;;7.40;66.33;103659.03;5074297;28;20035;-84
2021/03/01 00:22:12;;;;;;;20.38;13.95;;;;;;;7.38;66.58;103667.72;5073793;28;20037;-84
2021/03/01 00:24:38;;;;;;;25.67;16.23;;;;;;;7.34;66.17;103664.06;5074292;28;20032;-84
2021/03/01 00:27:05;;;;;;;20.65;14.80;;;;;;;7.27;66.24;103662.03;5073662;28;20024;-85
2021/03/01 00:29:31;;;;;;;21.80;14.75;;;;;;;7.22;66.42;103660.94;5067134;28;20051;-84
2021/03/01 00:31:58;;;;;;;20.98;14.48;;;;;;;7.25;66.57;103661.97;5070202;28;20033;-84
2021/03/01 00:34:25;;;;;;;20.20;13.65;;;;;;;7.21;67.20;103662.66;5063477;28;20079;-84
2021/03/01 00:36:52;;;;;;;26.92;17.17;;;;;;;7.20;67.42;103663.53;5069524;28;20047;-84
2021/03/01 00:39:18;;;;;;;28.05;17.38;;;;;;;7.20;67.74;103665.25;5071041;28;20024;-85
2021/03/01 00:41:45;;;;;;;29.95;17.85;;;;;;;7.25;67.96;103668.97;5072969;28;20028;-85
2021/03/01 00:44:12;;;;;;;27.98;16.35;;;;;;;7.30;67.73;103672.69;5068486;28;20044;-84
2021/03/01 00:46:39;;;;;;;30.52;17.73;;;;;;;7.34;67.66;103665.78;5072740;28;20020;-83
2021/03/01 00:49:06;;;;;;;27.00;16.95;;;;;;;7.37;67.61;103656.25;5072525;28;20032;-85
2021/03/01 00:51:33;;;;;;;33.17;19.02;;;;;;;7.36;67.72;103664.13;5072992;28;20029;-83
2021/03/01 00:53:59;;;;;;;33.53;18.25;;;;;;;7.39;67.99;103665.13;5073261;28;20501;-84
2021/03/01 00:56:26;;;;;;;31.42;18.45;;;;;;;7.46;67.56;103658.34;5072998;28;20162;-84
2021/03/01 00:58:58;;;;;;;29.52;19.50;;;;;;;7.46;67.71;103666.25;5071408;28;20056;-83
2021/03/01 01:01:25;;;;;;;32.88;19.02;;;;;;;7.52;67.14;103665.63;5064271;28;20115;-84
2021/03/01 01:03:51;;;;;;;25.65;15.75;;;;;;;7.55;67.23;103663.06;5065598;28;20032;-84
2021/03/01 01:06:18;;;;;;;30.50;17.10;;;;;;;7.56;67.64;103660.53;5062294;28;20486;-85
2021/03/01 01:08:45;;;;;;;29.92;17.10;;;;;;;7.50;67.52;103654.09;5068641;28;20063;-84
2021/03/01 01:11:12;;;;;;;30.50;19.67;;;;;;;7.54;67.32;103650.72;5073224;28;20115;-84
2021/03/01 01:13:39;;;;;;;30.48;17.15;;;;;;;7.60;67.30;103659.78;5068914;28;20099;-84
2021/03/01 01:16:06;;;;;;;30.58;18.35;;;;;;;7.64;67.31;103650.25;5072944;28;20021;-84
2021/03/01 01:18:32;;;;;;;32.28;19.88;;;;;;;7.65;67.18;103653.75;5072378;28;20032;-84
2021/03/01 01:20:59;;;;;;;37.65;19.50;;;;;;;7.58;67.75;103652.66;5072855;28;20053;-85
2021/03/01 01:23:25;;;;;;;36.90;20.30;;;;;;;7.65;67.39;103652.06;5072790;28;20066;-85
2021/03/01 01:25:52;;;;;;;32.55;19.73;;;;;;;7.64;67.50;103657.25;5069750;28;20032;-85
2021/03/01 01:28:19;;;;;;;32.50;18.63;;;;;;;7.72;66.93;103646.13;5064254;28;20020;-85
2021/03/01 01:30:46;;;;;;;33.17;19.17;;;;;;;7.72;67.33;103647.88;5072953;28;20502;-85
2021/03/01 01:33:13;;;;;;;30.27;17.98;;;;;;;7.70;67.52;103650.47;5072114;28;20130;-85
2021/03/01 01:35:40;;;;;;;35.47;19.27;;;;;;;7.72;67.57;103648.78;5072605;28;20024;-85
2021/03/01 01:38:06;;;;;;;32.72;18.88;;;;;;;7.68;67.67;103640.72;5071810;28;20060;-85
2021/03/01 01:40:34;;;;;;;31.13;18.55;;;;;;;7.72;67.55;103648.78;5071277;28;20080;-85
2021/03/01 01:43:00;;;;;;;32.30;18.17;;;;;;;7.72;67.28;103646.13;5067023;28;20108;-85
2021/03/01 01:45:27;;;;;;;37.25;19.52;;;;;;;7.81;67.13;103636.75;5072684;28;20475;-85
2021/03/01 01:47:55;;;;;;;35.25;19.83;;;;;;;7.82;67.31;103633.28;5072199;28;20104;-85
2021/03/01 01:50:23;;;;;;;34.47;18.77;;;;;;;7.75;67.67;103642.69;5070872;28;20052;-85
2021/03/01 01:52:52;;;;;;;31.20;19.05;;;;;;;7.72;67.30;103643.50;5072840;28;20033;-86
2021/03/01 01:55:20;;;;;;;38.90;20.92;;;;;;;7.73;67.01;103637.38;5070291;28;20024;-85
2021/03/01 01:57:47;;;;;;;27.98;18.00;;;;;;;7.72;67.37;103635.56;5072696;28;20039;-84
2021/03/01 02:00:30;;;;;;;31.60;18.08;;;;;;;7.73;67.21;103632.09;5068594;28;20047;-85
2021/03/01 02:03:06;;;;;;;35.40;18.05;;;;;;;7.64;67.44;103631.78;5068828;28;20032;-85
2021/03/01 02:05:34;;;;;;;36.30;18.90;;;;;;;7.72;67.29;103622.38;5075325;28;20058;-84
2021/03/01 02:08:13;;;;;;;34.13;19.02;;;;;;;7.73;67.50;103629.47;5077066;28;20027;-85
2021/03/01 02:10:48;;;;;;;32.90;18.00;;;;;;;7.68;67.92;103631.03;5075679;28;20056;-84
2021/03/01 02:13:31;;;;;;;29.63;17.55;;;;;;;7.69;67.77;103631.91;5076331;28;20117;-85
2021/03/01 02:16:10;;;;;;;35.10;19.95;;;;;;;7.76;67.59;103629.59;5076515;28;20037;-85
2021/03/01 02:18:37;;;;;;;32.42;17.85;;;;;;;7.75;67.45;103627.78;5076006;28;20783;-84
2021/03/01 02:21:12;;;;;;;35.33;17.83;;;;;;;7.82;67.57;103626.25;5076458;28;20051;-85
2021/03/01 02:23:39;;;;;;;40.08;21.20;;;;;;;7.79;67.37;103618.25;5075394;28;20087;-86
2021/03/01 02:26:11;;;;;;;36.00;19.30;;;;;;;7.76;67.64;103618.13;5076515;28;20438;-85
2021/03/01 02:28:45;;;;;;;38.38;18.70;;;;;;;7.70;68.29;103617.88;5075975;28;20024;-85
2021/03/01 02:31:12;;;;;;;39.13;19.98;;;;;;;7.73;67.66;103610.09;5071232;28;20060;-85
2021/03/01 02:33:46;;;;;;;37.10;20.52;;;;;;;7.72;67.49;103611.81;5076281;28;20107;-85
2021/03/01 02:36:24;;;;;;;38.10;20.27;;;;;;;7.77;67.42;103606.72;5075844;28;20071;-86
2021/03/01 02:38:53;;;;;;;40.33;20.75;;;;;;;7.77;67.71;103614.63;5076364;28;20033;-85
2021/03/01 02:41:20;;;;;;;39.67;19.38;;;;;;;7.80;67.62;103598.94;5073211;28;20434;-84
2021/03/01 02:43:47;;;;;;;35.88;19.95;;;;;;;7.86;67.32;103603.50;5076196;28;20111;-85
2021/03/01 02:46:14;;;;;;;40.58;20.30;;;;;;;7.92;67.52;103609.00;5075913;28;20036;-85
2021/03/01 02:48:42;;;;;;;40.40;20.67;;;;;;;7.91;67.41;103607.22;5076248;28;20063;-86
2021/03/01 02:51:11;;;;;;;37.92;20.55;;;;;;;7.88;67.29;103608.00;5075366;28;20514;-85
2021/03/01 02:53:41;;;;;;;35.33;18.80;;;;;;;7.93;67.54;103608.16;5075533;28;20033;-85
2021/03/01 02:56:08;;;;;;;36.50;19.40;;;;;;;7.90;67.54;103616.88;5076120;28;20033;-85
2021/03/01 02:58:38;;;;;;;39.83;20.77;;;;;;;7.90;67.48;103615.97;5075786;28;20029;-85
2021/03/01 03:01:06;;;;;;;37.88;19.92;;;;;;;7.93;67.64;103609.06;5074682;28;20033;-85
2021/03/01 03:03:35;;;;;;;30.75;17.67;;;;;;;7.87;67.83;103603.56;5075107;28;20044;-85
2021/03/01 03:06:03;;;;;;;34.70;18.00;;;;;;;7.91;67.76;103601.94;5075862;28;20047;-85
2021/03/01 03:08:32;;;;;;;34.55;18.40;;;;;;;7.92;67.59;103606.38;5075829;28;20123;-85
2021/03/01 03:10:59;;;;;;;33.72;18.30;;;;;;;7.90;67.21;103608.03;5074920;28;20031;-85
2021/03/01 03:13:27;;;;;;;41.30;19.85;;;;;;;7.85;67.61;103601.72;5074787;28;20058;-85
2021/03/01 03:15:57;;;;;;;35.85;18.60;;;;;;;7.82;67.93;103607.78;5073103;28;20040;-86
2021/03/01 03:18:26;;;;;;;30.73;17.42;;;;;;;7.91;67.65;103608.13;5059636;28;20029;-85
2021/03/01 03:20:52;;;;;;;35.55;17.67;;;;;;;7.90;67.51;103605.41;5074611;28;20123;-86
2021/03/01 03:23:20;;;;;;;31.70;16.38;;;;;;;7.92;67.22;103603.72;5076025;28;20154;-86
2021/03/01 03:25:46;;;;;;;39.05;19.27;;;;;;;7.87;67.16;103606.19;5075163;28;20531;-85
2021/03/01 03:28:13;;;;;;;32.95;17.55;;;;;;;7.90;67.30;103610.69;5074701;28;20039;-85
2021/03/01 03:30:39;;;;;;;38.30;18.50;;;;;;;7.97;67.11;103602.16;5074969;28;20039;-85
2021/03/01 03:33:06;;;;;;;33.45;16.95;;;;;;;8.00;67.62;103599.63;5073151;28;20127;-86
2021/03/01 03:35:33;;;;;;;36.25;18.67;;;;;;;8.00;67.17;103597.00;5075198;28;20033;-85
2021/03/01 03:38:07;;;;;;;34.50;17.92;;;;;;;8.02;67.31;103597.91;5074474;28;20094;-85
2021/03/01 03:40:35;;;;;;;41.60;20.20;;;;;;;7.94;67.72;103602.06;5074287;28;20380;-84
2021/03/01 03:43:03;;;;;;;38.90;18.85;;;;;;;7.96;67.78;103602.97;5075005;28;20036;-85
2021/03/01 03:45:31;;;;;;;31.95;18.65;;;;;;;7.98;67.51;103598.66;5075004;28;20378;-85
2021/03/01 03:48:01;;;;;;;38.67;19.38;;;;;;;8.00;67.25;103602.28;5074314;28;20025;-85
2021/03/01 03:50:29;;;;;;;35.92;18.80;;;;;;;8.00;67.36;103607.56;5073826;28;20083;-85
2021/03/01 03:53:04;;;;;;;32.25;18.48;;;;;;;8.07;66.91;103601.66;5075074;28;20475;-85
2021/03/01 03:55:32;;;;;;;33.45;18.70;;;;;;;8.03;67.23;103597.09;5074310;28;20086;-86
2021/03/01 03:58:02;;;;;;;36.97;18.75;;;;;;;8.08;67.09;103595.50;5074336;28;20030;-85
2021/03/01 04:00:32;;;;;;;42.50;20.13;;;;;;;7.99;67.53;103594.28;5074329;28;20442;-85
2021/03/01 04:03:06;;;;;;;35.20;18.13;;;;;;;7.96;67.07;103599.47;5074274;28;20111;-85
2021/03/01 04:05:33;;;;;;;33.33;18.27;;;;;;;7.93;66.94;103600.25;5074400;28;20475;-85
2021/03/01 04:08:01;;;;;;;32.40;17.70;;;;;;;7.96;67.37;103602.09;5074440;28;20422;-84
2021/03/01 04:10:33;;;;;;;32.55;16.83;;;;;;;7.99;66.96;103607.47;5074352;28;20491;-85
2021/03/01 04:13:01;;;;;;;32.42;17.13;;;;;;;8.00;67.07;103607.56;5073780;28;20115;-85
2021/03/01 04:15:30;;;;;;;33.35;18.77;;;;;;;7.96;66.96;103605.63;5073987;28;20025;-86
2021/03/01 04:17:59;;;;;;;36.25;17.90;;;;;;;7.96;67.13;103605.63;5074112;28;20430;-85
2021/03/01 04:20:26;;;;;;;30.38;16.98;;;;;;;7.98;67.28;103605.69;5073712;28;20391;-86
2021/03/01 04:22:56;;;;;;;30.45;16.98;;;;;;;7.96;67.28;103600.34;5073320;28;20387;-85
2021/03/01 04:25:23;;;;;;;30.60;17.83;;;;;;;7.97;67.24;103607.44;5073393;28;20036;-85
2021/03/01 04:27:51;;;;;;;30.70;17.60;;;;;;;7.99;66.77;103608.38;5074184;28;20024;-85
2021/03/01 04:30:18;;;;;;;32.90;16.50;;;;;;;8.01;66.74;103609.34;5074052;28;20028;-84
2021/03/01 04:32:47;;;;;;;32.97;17.58;;;;;;;8.06;67.17;103604.22;5072738;28;20020;-84
2021/03/01 04:35:17;;;;;;;32.58;16.92;;;;;;;8.05;66.64;103600.69;5073251;28;20036;-85
2021/03/01 04:37:44;;;;;;;31.92;16.52;;;;;;;8.05;66.68;103605.97;5067076;28;20021;-84
2021/03/01 04:40:11;;;;;;;34.80;18.20;;;;;;;8.05;66.66;103610.31;5073684;28;20036;-85
2021/03/01 04:42:51;;;;;;;36.05;18.13;;;;;;;8.13;66.21;103611.50;5073476;28;20032;-85
2021/03/01 04:45:26;;;;;;;31.50;17.13;;;;;;;8.15;66.16;103601.91;5073928;28;20036;-84
2021/03/01 04:48:01;;;;;;;29.52;15.70;;;;;;;8.09;66.42;103594.66;5073446;28;20122;-84
2021/03/01 04:50:28;;;;;;;30.70;15.70;;;;;;;8.04;66.26;103593.59;5071363;28;20025;-85
2021/03/01 04:52:54;;;;;;;33.28;16.67;;;;;;;8.03;66.66;103593.56;5073532;28;20085;-85
2021/03/01 04:55:21;;;;;;;34.95;18.73;;;;;;;8.04;66.17;103593.59;5073106;28;20042;-85
2021/03/01 04:57:51;;;;;;;33.90;18.42;;;;;;;7.99;66.26;103594.28;5073107;28;20029;-85
2021/03/01 05:00:19;;;;;;;36.47;18.58;;;;;;;8.00;66.32;103594.34;5073527;28;20034;-86
2021/03/01 05:02:46;;;;;;;34.70;17.10;;;;;;;7.92;66.41;103602.00;5073037;28;20111;-86
2021/03/01 05:05:12;;;;;;;35.35;18.58;;;;;;;7.92;66.53;103601.09;5073269;28;20050;-85
2021/03/01 05:07:39;;;;;;;33.08;16.15;;;;;;;7.91;66.18;103594.00;5073056;28;20487;-85
2021/03/01 05:10:07;;;;;;;30.67;17.80;;;;;;;7.92;66.43;103594.09;5073536;28;20055;-85
2021/03/01 05:12:33;;;;;;;37.60;19.10;;;;;;;7.90;66.56;103594.84;5073306;28;20522;-85
2021/03/01 05:14:59;;;;;;;28.25;14.93;;;;;;;7.98;66.41;103592.50;5072637;28;20060;-85
2021/03/01 05:17:25;;;;;;;34.90;17.48;;;;;;;7.97;65.92;103588.94;5064166;28;20029;-86
2021/03/01 05:19:52;;;;;;;30.48;16.63;;;;;;;7.99;66.13;103589.00;5069182;28;20535;-85
2021/03/01 05:22:18;;;;;;;31.35;17.40;;;;;;;8.00;65.79;103590.78;5073132;28;20040;-86
2021/03/01 05:24:44;;;;;;;31.98;17.98;;;;;;;8.04;65.85;103590.97;5074742;28;20529;-85
2021/03/01 05:27:11;;;;;;;36.63;17.75;;;;;;;7.99;65.65;103583.72;5073914;28;20047;-86
2021/03/01 05:29:37;;;;;;;32.83;17.80;;;;;;;8.02;65.63;103586.47;5074535;28;20043;-86
2021/03/01 05:32:05;;;;;;;31.58;16.85;;;;;;;7.99;66.21;103584.63;5073752;28;20052;-86
2021/03/01 05:34:31;;;;;;;31.33;17.02;;;;;;;8.01;65.54;103585.59;5075508;28;20511;-85
2021/03/01 05:36:58;;;;;;;37.88;18.65;;;;;;;7.94;66.04;103586.22;5080893;28;20075;-87
2021/03/01 05:39:25;;;;;;;33.97;18.00;;;;;;;7.95;66.00;103588.00;5082752;28;20518;-86
2021/03/01 05:41:53;;;;;;;31.65;16.55;;;;;;;7.94;65.71;103586.22;5105811;22;20048;-88
2021/03/01 05:44:20;;;;;;;31.25;16.48;;;;;;;7.97;65.79;103588.94;5098794;28;20493;-87
2021/03/01 05:46:48;;;;;;;31.40;15.95;;;;;;;7.98;65.73;103588.09;5095639;28;20028;-88
2021/03/01 05:49:15;;;;;;;31.63;17.33;;;;;;;7.93;65.55;103584.41;5099856;28;20058;-88
2021/03/01 05:51:48;;;;;;;32.15;18.08;;;;;;;7.99;65.84;103584.63;5100974;28;20381;-88
2021/03/01 05:54:19;;;;;;;32.60;16.55;;;;;;;7.95;65.91;103582.72;5097842;28;20035;-88
2021/03/01 05:56:47;;;;;;;34.92;19.02;;;;;;;7.99;65.89;103582.00;5082616;28;20032;-89
2021/03/01 05:59:16;;;;;;;34.95;19.38;;;;;;;8.03;65.62;103586.53;5099483;28;20036;-88
2021/03/01 06:01:43;;;;;;;31.95;17.27;;;;;;;8.07;65.71;103583.16;5081474;28;20422;-88
2021/03/01 06:04:10;;;;;;;34.53;18.85;;;;;;;8.06;65.71;103586.66;5080598;28;20021;-87
2021/03/01 06:06:36;;;;;;;41.33;18.30;;;;;;;8.05;65.57;103590.13;5096142;28;20429;-87
2021/03/01 06:09:03;;;;;;;32.05;16.67;;;;;;;8.02;65.92;103587.34;5062004;28;20073;-88
2021/03/01 06:11:29;;;;;;;33.50;16.80;;;;;;;8.01;65.74;103580.31;5090846;28;20040;-88
2021/03/01 06:13:55;;;;;;;31.38;18.00;;;;;;;8.00;65.92;103581.16;5092333;28;20033;-88
2021/03/01 06:16:22;;;;;;;41.20;19.00;;;;;;;8.00;65.66;103582.88;5089853;28;20028;-88
2021/03/01 06:18:48;;;;;;;35.90;17.75;;;;;;;7.99;65.50;103573.16;5085414;28;20040;-87
2021/03/01 06:21:17;;;;;;;37.55;19.35;;;;;;;7.98;65.80;103581.94;5083286;28;20028;-88
2021/03/01 06:23:45;;;;;;;39.78;20.05;;;;;;;8.00;65.67;103580.22;5094125;28;20056;-88
2021/03/01 06:26:32;;;;;;;37.10;19.52;;;;;;;8.05;65.63;103586.56;5075722;28;20518;-88
2021/03/01 06:31:46;;;;;;;38.70;19.92;;;;;;;7.96;65.64;103591.53;5057501;27;20430;-88
2021/03/01 06:39:50;;;;;;;38.45;18.55;;;;;;;7.98;65.60;103590.75;5075389;27;20446;-87
2021/03/01 06:50:45;;;;;;;43.75;21.10;;;;;;;8.07;65.19;103592.81;5070232;28;20158;-87
2021/03/01 06:56:11;;;;;;;45.47;20.35;;;;;;;8.10;64.98;103599.09;5104976;27;20379;-87
2021/03/01 06:58:42;;;;;;;38.45;20.20;;;;;;;8.03;65.11;103601.47;5090883;28;20033;-87
2021/03/01 07:03:51;;;;;;;47.45;21.67;;;;;;;8.00;65.09;103597.00;5075812;28;20402;-84
2021/03/01 07:06:18;;;;;;;37.38;20.15;;;;;;;8.00;65.06;103596.06;5070163;28;20025;-88
2021/03/01 07:08:52;;;;;;;41.22;20.65;;;;;;;7.91;65.46;103594.00;5069436;28;20052;-88
2021/03/01 07:16:46;;;;;;;39.30;19.10;;;;;;;7.90;65.73;103598.41;5091157;27;20385;-84
2021/03/01 07:19:31;;;;;;;42.67;20.85;;;;;;;8.03;65.50;103598.84;5070708;28;20029;-85
2021/03/01 07:22:00;;;;;;;39.63;20.60;;;;;;;7.97;65.42;103602.16;5055608;28;20056;-83
2021/03/01 07:24:28;;;;;;;38.33;18.63;;;;;;;7.94;65.76;103602.06;5050070;28;20040;-84
2021/03/01 07:26:57;;;;;;;40.03;20.35;;;;;;;7.95;65.16;103609.13;5050661;28;20029;-84
2021/03/01 07:29:25;;;;;;;40.05;20.63;;;;;;;7.95;65.84;103601.22;5050888;28;20045;-85
2021/03/01 07:32:13;;;;;;;45.22;21.02;;;;;;;8.01;65.46;103592.59;5049914;28;20499;-83
2021/03/01 07:34:40;;;;;;;41.70;21.73;;;;;;;8.03;65.07;103606.75;5049803;28;20041;-83
2021/03/01 07:37:06;;;;;;;45.58;20.83;;;;;;;8.02;65.26;103616.41;5050404;28;20029;-84
2021/03/01 07:39:33;;;;;;;40.10;19.75;;;;;;;8.04;65.30;103612.09;5050843;28;20029;-85
2021/03/01 07:42:00;;;;;;;44.80;23.08;;;;;;;8.04;65.47;103611.19;5050871;28;20164;-85
2021/03/01 07:44:30;;;;;;;43.55;22.08;;;;;;;8.13;64.99;103608.88;5050199;28;20495;-93
2021/03/01 07:46:57;;;;;;;38.85;20.05;;;;;;;8.12;65.22;103612.34;5050018;28;20029;-84
2021/03/01 07:49:45;;;;;;;39.42;19.80;;;;;;;8.13;65.09;103618.53;5050071;28;20044;-86
2021/03/01 07:55:20;;;;;;;51.33;24.20;;;;;;;8.15;65.23;103608.91;5091284;27;20415;-85
2021/03/01 07:58:04;;;;;;;40.38;19.45;;;;;;;8.16;64.84;103603.72;5070813;28;20039;-85
2021/03/01 08:00:34;;;;;;;40.15;19.88;;;;;;;8.08;65.25;103611.34;5067890;28;20044;-85
2021/03/01 08:03:01;;;;;;;44.78;21.70;;;;;;;8.19;65.18;103610.84;5050652;28;20073;-86
2021/03/01 08:08:11;;;;;;;43.58;21.95;;;;;;;8.20;64.93;103610.88;5090957;27;20408;-86
2021/03/01 08:13:31;;;;;;;41.17;19.90;;;;;;;8.34;64.69;103619.28;5111635;27;20357;-86
2021/03/01 08:16:18;;;;;;;37.15;19.30;;;;;;;8.36;64.84;103617.59;5110957;27;20038;-85
2021/03/01 08:18:59;;;;;;;40.30;20.77;;;;;;;8.46;64.67;103615.25;5111519;28;20352;-86
2021/03/01 08:21:46;;;;;;;36.42;19.10;;;;;;;8.38;64.69;103615.00;5111474;27;20471;-85
2021/03/01 08:24:48;;;;;;;35.63;19.17;;;;;;;8.41;64.08;103621.28;5111383;28;20419;-85
2021/03/01 08:30:34;;;;;;;41.75;20.88;;;;;;;8.41;64.45;103626.56;5089906;28;20400;-85
2021/03/01 08:44:17;;;;;;;35.75;19.30;;;;;;;8.35;64.51;103626.34;5091160;27;20392;-86
2021/03/01 08:46:43;;;;;;;32.35;18.40;;;;;;;8.35;64.18;103623.72;5071009;28;20029;-86
2021/03/01 08:49:09;;;;;;;32.50;18.00;;;;;;;8.38;64.32;103620.28;5070512;28;20446;-87
2021/03/01 08:51:36;;;;;;;41.42;19.70;;;;;;;8.38;63.88;103621.16;5058847;28;20037;-87
2021/03/01 08:54:03;;;;;;;36.10;20.83;;;;;;;8.45;64.38;103624.94;5051051;28;20037;-86
2021/03/01 08:56:30;;;;;;;36.95;20.45;;;;;;;8.54;64.31;103616.44;5050366;28;20025;-86
2021/03/01 08:58:59;;;;;;;39.78;20.33;;;;;;;8.49;64.03;103616.28;5050561;28;20029;-87
2021/03/01 09:01:25;;;;;;;36.72;20.15;;;;;;;8.61;64.12;103622.81;5050783;28;20037;-84
2021/03/01 09:03:51;;;;;;;36.95;20.35;;;;;;;8.55;64.62;103619.13;5050495;28;20037;-85
2021/03/01 09:06:20;;;;;;;43.47;22.42;;;;;;;8.65;64.21;103619.41;5049978;28;20071;-85
2021/03/01 09:08:55;;;;;;;41.70;22.45;;;;;;;8.64;64.34;103626.47;5050075;28;20030;-84
2021/03/01 09:11:25;;;;;;;40.17;21.02;;;;;;;8.69;64.12;103621.34;5050624;28;20479;-88
2021/03/01 09:13:54;;;;;;;38.67;20.63;;;;;;;8.71;64.34;103617.88;5049955;28;20052;-86
2021/03/01 09:16:23;;;;;;;38.15;20.92;;;;;;;8.71;63.99;103617.88;5050632;28;20032;-86
2021/03/01 09:18:52;;;;;;;35.83;19.48;;;;;;;8.78;63.98;103624.25;5050467;28;20029;-84
2021/03/01 09:21:20;;;;;;;36.80;19.90;;;;;;;8.77;64.26;103627.75;5049626;28;20036;-86
2021/03/01 09:23:50;;;;;;;35.95;19.20;;;;;;;8.84;63.99;103620.94;5050508;28;20383;-87
2021/03/01 09:26:20;;;;;;;39.65;19.90;;;;;;;8.82;63.42;103617.31;5050034;28;20026;-86
2021/03/01 09:28:47;;;;;;;42.50;20.23;;;;;;;8.77;63.69;103609.25;5050607;28;20437;-86
2021/03/01 09:31:15;;;;;;;42.03;20.55;;;;;;;8.85;63.84;103617.44;5050067;28;20021;-84
2021/03/01 09:33:43;;;;;;;35.53;18.05;;;;;;;8.78;63.49;103615.44;5050101;28;20037;-87
2021/03/01 09:36:09;;;;;;;39.55;19.25;;;;;;;8.80;64.04;103619.00;5050316;28;20068;-85
2021/03/01 09:38:37;;;;;;;39.35;19.42;;;;;;;8.88;63.62;103622.81;5049938;28;20037;-84
2021/03/01 09:41:06;;;;;;;36.42;19.70;;;;;;;8.87;63.06;103611.34;5050216;28;20108;-86
2021/03/01 09:43:33;;;;;;;34.42;18.60;;;;;;;8.81;63.21;103610.25;5049451;28;20033;-87
2021/03/01 09:46:01;;;;;;;39.58;21.35;;;;;;;8.91;63.27;103615.00;5049841;28;20423;-87
2021/03/01 09:48:30;;;;;;;32.95;18.80;;;;;;;8.95;63.33;103608.94;5049974;28;20503;-83
2021/03/01 09:50:58;;;;;;;35.38;19.20;;;;;;;9.09;62.84;103611.13;5049766;28;20127;-86
2021/03/01 09:53:26;;;;;;;36.40;21.02;;;;;;;9.09;63.14;103600.53;5048621;28;20057;-87
2021/03/01 09:55:53;;;;;;;36.42;20.02;;;;;;;9.12;62.73;103605.91;5036943;28;20361;-86
2021/03/01 09:58:25;;;;;;;34.67;20.05;;;;;;;9.24;62.10;103603.63;5035982;28;20132;-84
2021/03/01 10:00:52;;;;;;;38.70;19.83;;;;;;;9.24;62.57;103595.69;5036165;28;20036;-84
2021/03/01 10:03:18;;;;;;;37.30;20.17;;;;;;;9.25;61.90;103597.50;5035913;28;20040;-83
2021/03/01 10:05:52;;;;;;;36.22;20.08;;;;;;;9.36;62.00;103596.06;5035956;28;20060;-84
2021/03/01 10:08:21;;;;;;;39.38;20.60;;;;;;;9.35;61.75;103598.69;5035879;28;20029;-86
2021/03/01 10:10:48;;;;;;;40.53;22.42;;;;;;;9.35;61.58;103596.03;5050892;22;20086;-87
2021/03/01 10:13:27;;;;;;;37.60;20.42;;;;;;;9.48;61.64;103594.63;5029848;28;20025;-87
2021/03/01 10:15:54;;;;;;;42.45;21.85;;;;;;;9.42;61.48;103591.81;5036132;28;20022;-88
2021/03/01 10:18:27;;;;;;;48.55;27.23;;;;;;;9.48;61.83;103589.34;5032380;28;20025;-88
2021/03/01 10:21:03;;;;;;;41.95;21.88;;;;;;;9.50;60.86;103595.56;5025734;28;20032;-87
2021/03/01 10:26:28;;;;;;;43.10;22.05;;;;;;;9.51;61.17;103594.72;5110540;27;20367;-88
2021/03/01 10:29:00;;;;;;;44.17;21.40;;;;;;;9.46;61.39;103585.72;5110882;28;20028;-88
2021/03/01 10:31:34;;;;;;;;;;;;;;;9.51;61.16;103592.97;5102613;28;20074;-87
2021/03/01 10:34:04;;;;;;;36.15;19.85;;;;;;;9.44;61.32;103593.63;5091821;28;19957;-87
2021/03/01 10:36:33;;;;;;;35.65;20.58;;;;;;;9.35;61.20;103590.75;5090554;28;20032;-86
2021/03/01 10:41:45;;;;;;;40.22;21.23;;;;;;;9.47;60.83;103603.41;5086454;27;20502;-86
2021/03/01 10:44:13;;;;;;;36.42;20.27;;;;;;;9.35;61.19;103598.69;5051599;28;20057;-82
2021/03/01 10:49:26;;;;;;;39.92;19.48;;;;;;;9.41;60.87;103606.78;5078190;28;20452;-86
2021/03/01 10:51:54;;;;;;;37.97;20.35;;;;;;;9.41;60.67;103604.16;5058814;28;20110;-84
2021/03/01 10:54:21;;;;;;;33.13;18.70;;;;;;;9.52;60.38;103605.34;5045447;28;20099;-85
2021/03/01 10:56:47;;;;;;;37.97;19.65;;;;;;;9.46;60.70;103604.25;5042752;28;20445;-89
2021/03/01 10:59:14;;;;;;;35.88;20.52;;;;;;;9.58;60.58;103604.63;5051336;28;20029;-88
2021/03/01 11:01:43;;;;;;;35.00;18.05;;;;;;;9.73;59.96;103606.78;5048259;28;20025;-87
2021/03/01 11:04:11;;;;;;;38.10;20.55;;;;;;;9.71;60.12;103604.13;5051126;28;20079;-88
2021/03/01 11:06:40;;;;;;;34.00;18.55;;;;;;;9.85;59.52;103606.25;5052289;28;20029;-85
2021/03/01 11:09:10;;;;;;;29.00;16.88;;;;;;;9.91;59.38;103593.19;5040155;28;20116;-86
2021/03/01 11:11:37;;;;;;;40.63;22.60;;;;;;;9.95;59.15;103597.69;5056664;28;20033;-87
2021/03/01 11:14:05;;;;;;;38.90;18.83;;;;;;;9.86;59.64;103602.75;5041196;28;20030;-83
2021/03/01 11:16:31;;;;;;;32.50;17.58;;;;;;;9.93;59.49;103602.09;5047559;28;20033;-86
2021/03/01 11:18:57;;;;;;;36.42;19.60;;;;;;;9.95;59.48;103597.69;5046620;28;20029;-87
2021/03/01 11:21:24;;;;;;;35.20;18.80;;;;;;;9.96;58.97;103594.19;5047305;28;20115;-88
2021/03/01 11:23:50;;;;;;;35.45;20.08;;;;;;;9.94;59.50;103602.97;5048162;28;20112;-87
2021/03/01 11:26:16;;;;;;;38.55;20.13;;;;;;;9.88;59.27;103593.09;5047951;28;20040;-88
2021/03/01 11:28:43;;;;;;;36.17;20.20;;;;;;;9.91;59.10;103598.47;5047738;28;20033;-86
2021/03/01 11:31:11;;;;;;;33.53;19.00;;;;;;;9.93;59.28;103587.91;5053090;28;20061;-88
2021/03/01 11:33:38;;;;;;;33.38;19.25;;;;;;;10.08;59.06;103590.06;5050046;28;20594;-85
2021/03/01 11:36:04;;;;;;;31.98;17.90;;;;;;;10.03;58.97;103580.28;5037874;28;20055;-87
2021/03/01 11:38:31;;;;;;;34.83;18.35;;;;;;;10.10;58.80;103581.31;5048442;28;20025;-87
2021/03/01 11:40:58;;;;;;;36.17;19.10;;;;;;;10.04;58.61;103576.78;5065220;22;20037;-87
2021/03/01 11:43:24;;;;;;;33.63;18.52;;;;;;;10.19;58.49;103564.75;5069834;28;20040;-87
2021/03/01 11:45:51;;;;;;;33.40;18.17;;;;;;;10.22;58.88;103564.84;5069645;28;20044;-86
2021/03/01 11:48:18;;;;;;;32.90;17.83;;;;;;;10.54;57.98;103562.09;5070009;28;20032;-85
2021/03/01 11:50:46;;;;;;;33.55;18.33;;;;;;;10.80;57.92;103553.88;5069533;28;20032;-85
2021/03/01 11:53:14;;;;;;;28.63;17.45;;;;;;;11.00;58.02;103555.22;5069619;28;20036;-88
2021/03/01 11:55:41;;;;;;;32.38;18.33;;;;;;;11.27;57.55;103555.78;5069966;28;20163;-85
2021/03/01 11:58:08;;;;;;;27.25;16.40;;;;;;;11.28;57.00;103550.50;5069819;28;20104;-88
2021/03/01 12:00:35;;;;;;;30.88;18.00;;;;;;;11.36;56.66;103552.41;5057790;28;20033;-86
2021/03/01 12:03:02;;;;;;;32.85;18.33;;;;;;;11.33;56.59;103540.84;5056843;28;20029;-90
2021/03/01 12:05:30;;;;;;;27.08;16.33;;;;;;;11.25;57.10;103546.88;5057406;28;20040;-90
2021/03/01 12:07:56;;;;;;;27.10;16.25;;;;;;;11.21;56.68;103540.59;5056744;28;20068;-89
2021/03/01 12:10:23;;;;;;;26.13;15.35;;;;;;;11.30;56.95;103548.78;5056922;28;20037;-94
2021/03/01 12:12:49;;;;;;;23.55;15.80;;;;;;;11.45;56.01;103544.63;5055074;28;20115;-91
2021/03/01 12:15:16;;;;;;;24.63;15.88;;;;;;;11.48;55.67;103544.69;5056319;28;20025;-87
2021/03/01 12:17:42;;;;;;;27.50;16.00;;;;;;;11.43;55.87;103535.75;5056503;28;20033;-90
2021/03/01 12:20:08;;;;;;;29.23;15.60;;;;;;;11.31;55.61;103541.69;5056536;28;20029;-88
2021/03/01 12:22:36;;;;;;;22.48;15.15;;;;;;;11.09;55.69;103528.00;5054586;28;20051;-86